Time;durP1;ratioP1;P1;durP2;ratioP2;P2;SDS_P1;SDS_P2;PMS_P1;PMS_P2;Temp;Humidity;BMP_temperature;BMP_pressure;BME280_temperature;BME280_humidity;BME280_pressure;Samples;Min_cycle;Max_cycle;Signal;HPM_P1;HPM_P2
2024/03/06 00:02:15;;;;;;;80.30;40.43;;;;;;;3.31;77.34;100519.67;123505;1102;104304;-78
2024/03/06 00:04:47;;;;;;;77.40;39.47;;;;;;;3.28;77.54;100522.95;123506;1102;104190;-79
2024/03/06 00:07:18;;;;;;;79.47;40.03;;;;;;;3.26;77.56;100523.64;123563;1102;104322;-79
2024/03/06 00:09:50;;;;;;;76.27;37.80;;;;;;;3.27;77.06;100525.44;123562;1102;104280;-78
2024/03/06 00:12:21;;;;;;;76.73;38.73;;;;;;;3.26;77.00;100514.19;123497;1102;104389;-78
2024/03/06 00:14:52;;;;;;;78.83;39.43;;;;;;;3.28;78.06;100517.77;123548;1102;104364;-78
2024/03/06 00:17:24;;;;;;;72.37;38.77;;;;;;;3.28;76.97;100515.17;123512;1102;104784;-78
2024/03/06 00:19:55;;;;;;;71.33;37.27;;;;;;;3.32;77.46;100521.44;123629;1102;104361;-79
2024/03/06 00:22:26;;;;;;;73.63;37.10;;;;;;;3.34;77.56;100520.75;123701;1101;102287;-79
2024/03/06 00:24:57;;;;;;;75.57;38.47;;;;;;;3.41;77.40;100522.04;123825;1102;104326;-79
2024/03/06 00:27:28;;;;;;;75.23;36.80;;;;;;;3.49;77.17;100527.72;123744;1101;104367;-78
2024/03/06 00:30:00;;;;;;;77.17;37.60;;;;;;;3.50;77.33;100514.85;123688;1102;104274;-79
2024/03/06 00:32:31;;;;;;;75.47;37.27;;;;;;;3.49;77.72;100518.27;123815;1102;104198;-77
2024/03/06 00:35:03;;;;;;;71.33;38.67;;;;;;;3.47;77.01;100514.66;123635;1102;104223;-78
2024/03/06 00:37:34;;;;;;;75.73;38.87;;;;;;;3.46;77.89;100512.88;123904;1102;104395;-78
2024/03/06 00:40:07;;;;;;;79.80;40.33;;;;;;;3.45;77.75;100513.67;123570;1102;117841;-79
2024/03/06 00:42:40;;;;;;;74.97;37.23;;;;;;;3.46;77.65;100517.15;123554;1102;104275;-78
2024/03/06 00:45:12;;;;;;;74.40;39.23;;;;;;;3.46;78.20;100514.55;123885;1102;104226;-77
2024/03/06 00:47:44;;;;;;;73.23;37.63;;;;;;;3.44;77.44;100506.67;123569;1102;104469;-77
2024/03/06 00:50:16;;;;;;;74.73;37.67;;;;;;;3.51;77.80;100515.77;123473;1102;104281;-78
2024/03/06 00:52:48;;;;;;;75.77;38.07;;;;;;;3.51;77.80;100511.47;123512;1102;104299;-78
2024/03/06 00:55:22;;;;;;;75.90;38.60;;;;;;;3.51;78.01;100515.77;123465;1102;104328;-78
2024/03/06 00:57:53;;;;;;;68.87;37.08;;;;;;;3.54;78.30;100513.38;123519;1102;104275;-78
2024/03/06 01:00:24;;;;;;;73.03;37.83;;;;;;;3.56;78.66;100525.63;123429;1102;104661;-77
2024/03/06 01:02:55;;;;;;;67.30;35.20;;;;;;;3.55;77.60;100513.47;123619;1102;104305;-78
2024/03/06 01:05:27;;;;;;;74.43;37.00;;;;;;;3.55;77.35;100521.25;123491;1102;104392;-77
2024/03/06 01:07:58;;;;;;;72.13;37.40;;;;;;;3.55;77.83;100513.47;123405;1102;104492;-78
2024/03/06 01:10:30;;;;;;;75.90;36.87;;;;;;;3.56;77.62;100522.14;123727;1102;104255;-78
2024/03/06 01:13:02;;;;;;;65.83;34.07;;;;;;;3.59;77.88;100519.74;123753;1102;104280;-78
2024/03/06 01:15:33;;;;;;;69.10;35.37;;;;;;;3.60;78.10;100524.14;123503;1102;104275;-78
2024/03/06 01:18:04;;;;;;;72.63;35.60;;;;;;;3.65;78.76;100521.84;123590;1102;104246;-78
2024/03/06 01:20:36;;;;;;;71.97;35.87;;;;;;;3.69;78.41;100529.00;123592;1102;104271;-78
2024/03/06 01:23:07;;;;;;;72.17;36.00;;;;;;;3.74;77.77;100522.39;123514;1102;104277;-78
2024/03/06 01:25:38;;;;;;;70.40;35.40;;;;;;;3.82;78.49;100528.07;123547;1102;104255;-79
2024/03/06 01:28:09;;;;;;;67.57;34.97;;;;;;;3.89;78.52;100531.16;123576;1102;104352;-79
2024/03/06 01:30:41;;;;;;;67.80;33.03;;;;;;;3.99;78.35;100521.34;123625;1102;104349;-79
2024/03/06 01:33:12;;;;;;;63.00;32.53;;;;;;;4.02;78.38;100522.45;123518;1102;104335;-78
2024/03/06 01:35:43;;;;;;;70.13;34.10;;;;;;;4.00;78.58;100523.15;123650;1100;104274;-78
2024/03/06 01:38:15;;;;;;;59.73;32.03;;;;;;;3.97;78.20;100523.84;123436;1101;104248;-78
2024/03/06 01:40:47;;;;;;;67.60;34.43;;;;;;;3.93;78.19;100519.28;123548;1102;105482;-78
2024/03/06 01:43:26;;;;;;;71.67;33.67;;;;;;;3.88;77.93;100518.08;123529;1102;104489;-78
2024/03/06 01:45:57;;;;;;;68.63;35.43;;;;;;;3.87;78.37;100517.19;123517;1101;104278;-78
2024/03/06 01:48:32;;;;;;;66.27;33.53;;;;;;;3.86;77.84;100528.36;123690;1102;104331;-77
2024/03/06 01:51:05;;;;;;;68.23;34.33;;;;;;;3.83;78.55;100525.57;123563;1102;104348;-78
2024/03/06 01:53:37;;;;;;;68.40;34.67;;;;;;;3.83;79.06;100524.69;123544;1102;104274;-78
2024/03/06 01:56:11;;;;;;;68.17;34.73;;;;;;;3.83;78.26;100528.17;123637;1100;104291;-79
2024/03/06 01:58:43;;;;;;;62.70;32.20;;;;;;;3.89;78.71;100525.95;123631;1102;104274;-78
2024/03/06 02:01:14;;;;;;;69.10;33.53;;;;;;;3.92;78.29;100520.96;123605;1102;104313;-78
2024/03/06 02:03:46;;;;;;;67.90;34.33;;;;;;;3.92;78.19;100525.27;123607;1102;104389;-78
2024/03/06 02:06:19;;;;;;;63.80;32.30;;;;;;;3.89;78.34;100533.75;123578;1102;104245;-78
2024/03/06 02:08:51;;;;;;;71.37;35.03;;;;;;;3.87;78.76;100535.36;123554;1102;104248;-78
2024/03/06 02:11:22;;;;;;;63.93;32.57;;;;;;;3.88;78.52;100534.57;123520;1102;104370;-78
2024/03/06 02:13:53;;;;;;;67.80;34.43;;;;;;;3.91;78.75;100537.36;123566;1102;104169;-78
2024/03/06 02:16:25;;;;;;;67.40;33.60;;;;;;;3.94;78.41;100532.36;123639;1102;104245;-78
2024/03/06 02:18:57;;;;;;;70.17;35.80;;;;;;;3.92;78.56;100535.65;123542;1102;104273;-78
2024/03/06 02:21:29;;;;;;;73.13;36.53;;;;;;;3.87;79.04;100532.77;123453;1102;104345;-78
2024/03/06 02:24:00;;;;;;;73.00;36.03;;;;;;;3.83;78.70;100538.55;123389;1101;104233;-77
2024/03/06 02:26:31;;;;;;;71.23;35.80;;;;;;;3.81;78.14;100542.77;123426;1102;104370;-77
2024/03/06 02:29:05;;;;;;;62.50;34.20;;;;;;;3.80;78.73;100542.66;123333;1102;104277;-79
2024/03/06 02:31:38;;;;;;;67.20;34.43;;;;;;;3.80;79.31;100540.95;123352;1102;104177;-78
2024/03/06 02:34:10;;;;;;;66.33;33.97;;;;;;;3.79;78.33;100544.38;123515;1102;104296;-77
2024/03/06 02:36:41;;;;;;;62.20;32.97;;;;;;;3.80;79.00;100540.95;123416;1100;104505;-78
2024/03/06 02:39:12;;;;;;;64.80;32.53;;;;;;;3.81;78.61;100539.28;123482;1102;104270;-77
2024/03/06 02:41:43;;;;;;;63.57;33.60;;;;;;;3.81;78.63;100541.87;123384;1102;105570;-78
2024/03/06 02:44:14;;;;;;;65.67;32.77;;;;;;;3.81;79.65;100542.77;123491;1102;104747;-78
2024/03/06 02:46:49;;;;;;;66.00;32.45;;;;;;;3.82;79.19;100541.05;123452;1102;104413;-79
2024/03/06 02:49:21;;;;;;;60.23;31.83;;;;;;;3.85;78.73;100541.25;123540;1102;104326;-79
2024/03/06 02:51:52;;;;;;;56.77;29.13;;;;;;;3.86;79.41;100548.25;123366;1101;104238;-78
2024/03/06 02:54:24;;;;;;;67.03;31.17;;;;;;;3.87;79.23;100544.86;123389;1100;104271;-79
2024/03/06 02:56:56;;;;;;;63.13;30.93;;;;;;;3.90;79.12;100532.07;123409;1102;104245;-78
2024/03/06 02:59:27;;;;;;;60.30;31.40;;;;;;;3.92;79.53;100527.86;123502;1102;104349;-78
2024/03/06 03:02:00;;;;;;;65.30;30.70;;;;;;;3.96;79.30;100542.84;123542;1102;104248;-78
2024/03/06 03:04:31;;;;;;;56.80;29.50;;;;;;;3.96;78.80;100535.94;123444;1102;104274;-78
2024/03/06 03:07:03;;;;;;;59.50;30.87;;;;;;;3.98;79.45;100538.63;123399;1102;104232;-78
2024/03/06 03:09:35;;;;;;;59.50;30.63;;;;;;;4.02;79.47;100545.83;123434;1102;104284;-78
2024/03/06 03:12:07;;;;;;;57.70;30.10;;;;;;;4.01;79.30;100543.13;123487;1102;104422;-79
2024/03/06 03:14:38;;;;;;;60.23;30.23;;;;;;;4.02;79.12;100542.31;123456;1102;104271;-78
2024/03/06 03:17:10;;;;;;;63.30;31.27;;;;;;;4.05;79.61;100542.50;123554;1102;104204;-78
2024/03/06 03:19:41;;;;;;;59.80;29.93;;;;;;;4.08;79.72;100541.02;123466;1102;104271;-78
2024/03/06 03:22:13;;;;;;;61.20;30.40;;;;;;;4.08;79.30;100538.42;123511;1102;104306;-78
2024/03/06 03:24:45;;;;;;;60.00;30.70;;;;;;;4.08;79.91;100538.42;123526;1101;104332;-78
2024/03/06 03:27:16;;;;;;;61.30;30.83;;;;;;;4.10;79.59;100538.52;123477;1102;104274;-78
2024/03/06 03:29:48;;;;;;;63.90;31.93;;;;;;;4.10;79.37;100548.91;123441;1102;104245;-78
2024/03/06 03:32:19;;;;;;;61.50;30.93;;;;;;;4.11;79.61;100549.00;123579;1102;104246;-79
2024/03/06 03:34:50;;;;;;;55.00;28.23;;;;;;;4.14;79.77;100554.38;123549;1102;104297;-78
2024/03/06 03:37:21;;;;;;;60.30;31.00;;;;;;;4.15;80.07;100544.88;123446;1102;104235;-79
2024/03/06 03:39:53;;;;;;;60.97;30.53;;;;;;;4.18;79.93;100555.46;123511;1102;104290;-78
2024/03/06 03:42:24;;;;;;;59.23;30.40;;;;;;;4.16;79.54;100554.48;123516;1102;104213;-78
2024/03/06 03:44:55;;;;;;;57.43;29.40;;;;;;;4.18;79.90;100551.98;123394;1102;104306;-78
2024/03/06 03:47:26;;;;;;;57.83;29.07;;;;;;;4.17;79.94;100551.05;123569;1102;104251;-79
2024/03/06 03:49:59;;;;;;;57.83;29.53;;;;;;;4.20;79.40;100559.04;123427;1100;104392;-79
2024/03/06 03:52:30;;;;;;;58.27;29.80;;;;;;;4.21;79.26;100562.56;123569;1102;104307;-79
2024/03/06 03:55:02;;;;;;;63.10;31.30;;;;;;;4.23;79.92;100561.83;123594;1102;104212;-79
2024/03/06 03:57:33;;;;;;;61.07;31.30;;;;;;;4.23;79.02;100563.54;123526;1102;104255;-79
2024/03/06 04:00:10;;;;;;;58.67;29.93;;;;;;;4.22;79.96;100561.73;123634;1101;104727;-79
2024/03/06 04:02:43;;;;;;;61.47;30.93;;;;;;;4.20;79.98;100576.34;123645;1102;104357;-79
2024/03/06 04:05:14;;;;;;;64.77;31.50;;;;;;;4.18;80.00;100571.05;123611;1102;104270;-79
2024/03/06 04:07:45;;;;;;;59.70;30.70;;;;;;;4.18;80.30;100571.05;123397;1100;104251;-79
2024/03/06 04:10:17;;;;;;;61.30;31.93;;;;;;;4.20;80.28;100585.02;123634;1102;104281;-79
2024/03/06 04:12:48;;;;;;;64.40;30.80;;;;;;;4.20;80.21;100584.12;123489;1102;104354;-78
2024/03/06 04:15:20;;;;;;;56.73;29.03;;;;;;;4.21;79.80;100576.43;123542;1102;104252;-78
2024/03/06 04:17:52;;;;;;;62.40;31.20;;;;;;;4.22;79.64;100583.40;123419;1102;104371;-79
2024/03/06 04:20:24;;;;;;;57.60;30.80;;;;;;;4.24;79.50;100596.48;123539;1100;104354;-78
2024/03/06 04:22:55;;;;;;;67.00;33.43;;;;;;;4.24;79.93;100592.20;123536;1102;104226;-78
2024/03/06 04:25:26;;;;;;;65.27;32.57;;;;;;;4.23;80.16;100599.91;123408;1102;104290;-78
2024/03/06 04:27:57;;;;;;;63.37;32.67;;;;;;;4.19;79.92;100596.23;123422;1102;104335;-78
2024/03/06 04:30:28;;;;;;;61.63;32.57;;;;;;;4.18;79.39;100590.94;123374;1101;104334;-79
2024/03/06 04:33:00;;;;;;;64.53;33.23;;;;;;;4.18;79.71;100589.23;123392;1102;104280;-79
2024/03/06 04:35:32;;;;;;;70.33;33.17;;;;;;;4.21;80.06;100591.12;123520;1102;104233;-79
2024/03/06 04:38:05;;;;;;;65.70;31.53;;;;;;;4.25;80.23;100595.69;123472;1101;104255;-79
2024/03/06 04:40:36;;;;;;;62.25;32.30;;;;;;;4.26;79.86;100595.79;123569;1102;104667;-78
2024/03/06 04:43:08;;;;;;;60.45;30.35;;;;;;;4.26;80.11;100597.50;123542;1102;104251;-78
2024/03/06 04:45:39;;;;;;;64.63;32.63;;;;;;;4.24;79.78;100602.59;123660;1102;104229;-79
2024/03/06 04:48:10;;;;;;;60.40;32.13;;;;;;;4.22;79.75;100598.98;123609;1102;104252;-79
2024/03/06 04:50:42;;;;;;;59.97;31.53;;;;;;;4.25;79.89;100603.48;123643;1102;104249;-79
2024/03/06 04:53:13;;;;;;;60.40;31.77;;;;;;;4.26;80.48;100600.09;123619;1102;104247;-79
2024/03/06 04:55:44;;;;;;;59.30;31.47;;;;;;;4.34;79.94;100603.17;123557;1102;104226;-79
2024/03/06 04:58:15;;;;;;;57.33;30.83;;;;;;;4.41;79.84;100610.52;123578;1102;104277;-79
2024/03/06 05:00:47;;;;;;;61.13;29.80;;;;;;;4.46;80.05;100597.03;123488;1102;104248;-79
2024/03/06 05:03:18;;;;;;;60.13;30.43;;;;;;;4.48;79.87;100602.32;123711;1102;104270;-79
2024/03/06 05:05:49;;;;;;;55.77;30.17;;;;;;;4.46;80.31;100596.14;123587;1102;104283;-79
2024/03/06 05:08:21;;;;;;;61.47;30.80;;;;;;;4.47;80.38;100604.03;123443;1102;104419;-79
2024/03/06 05:10:52;;;;;;;61.50;31.37;;;;;;;4.48;79.99;100598.01;123479;1102;104297;-80
2024/03/06 05:13:24;;;;;;;64.07;30.73;;;;;;;4.50;79.87;100600.70;123516;1102;104217;-79
2024/03/06 05:15:55;;;;;;;58.40;29.83;;;;;;;4.52;80.29;100601.72;123550;1102;104350;-79
2024/03/06 05:18:27;;;;;;;66.70;31.50;;;;;;;4.55;79.93;100599.31;123624;1102;104726;-79
2024/03/06 05:20:58;;;;;;;61.37;31.60;;;;;;;4.55;79.64;100599.31;123460;1102;104335;-79
2024/03/06 05:23:29;;;;;;;60.67;32.00;;;;;;;4.58;80.54;100604.70;123189;1102;104846;-79
2024/03/06 05:26:00;;;;;;;59.67;30.17;;;;;;;4.64;79.86;100604.15;123453;1101;104297;-79
2024/03/06 05:28:31;;;;;;;72.80;31.77;;;;;;;4.68;79.98;100614.83;123654;1102;104303;-79
2024/03/06 05:31:16;;;;;;;62.90;31.07;;;;;;;4.72;80.31;100602.02;123517;1102;104778;-79
2024/03/06 05:33:48;;;;;;;57.83;29.57;;;;;;;4.74;79.91;100605.63;123651;1102;104376;-78
2024/03/06 05:36:19;;;;;;;58.90;30.13;;;;;;;4.80;80.04;100611.17;123651;1102;105165;-78
2024/03/06 05:38:50;;;;;;;64.10;30.33;;;;;;;4.88;79.77;100615.16;123702;1102;104200;-78
2024/03/06 05:41:21;;;;;;;63.00;30.63;;;;;;;4.95;80.04;100609.50;123726;1102;104252;-78
2024/03/06 05:43:52;;;;;;;60.20;30.60;;;;;;;5.01;80.23;100601.17;123821;1102;104169;-78
2024/03/06 05:46:23;;;;;;;60.87;30.60;;;;;;;5.08;79.85;100607.63;123820;1102;104248;-79
2024/03/06 05:48:55;;;;;;;60.20;31.13;;;;;;;5.14;79.78;100610.59;123943;1102;104175;-79
2024/03/06 05:51:26;;;;;;;57.20;29.43;;;;;;;5.23;79.99;100608.53;123902;1101;104326;-79
2024/03/06 05:53:57;;;;;;;67.90;30.90;;;;;;;5.31;79.87;100608.98;123916;1102;104188;-79
2024/03/06 05:56:28;;;;;;;62.70;30.33;;;;;;;5.38;79.64;100600.74;123939;1102;104197;-79
2024/03/06 05:59:04;;;;;;;56.87;30.33;;;;;;;5.48;79.27;100603.05;124205;1102;104275;-78
2024/03/06 06:01:35;;;;;;;62.20;30.60;;;;;;;5.60;79.99;100601.98;124144;1102;104274;-79
2024/03/06 06:04:07;;;;;;;59.27;30.77;;;;;;;5.67;79.40;100611.91;124248;1102;104287;-80
2024/03/06 06:06:38;;;;;;;62.60;30.60;;;;;;;5.73;79.79;100613.19;124066;1102;104197;-80
2024/03/06 06:09:15;;;;;;;60.83;30.67;;;;;;;5.85;79.64;100601.66;124129;1102;104360;-79
2024/03/06 06:11:48;;;;;;;59.10;28.73;;;;;;;5.94;79.87;100607.39;124052;1102;104278;-79
2024/03/06 06:14:20;;;;;;;63.67;30.47;;;;;;;6.03;79.34;100607.02;124223;1102;105440;-79
2024/03/06 06:16:51;;;;;;;60.93;29.77;;;;;;;6.16;79.43;100608.62;124099;1102;104146;-80
2024/03/06 06:19:22;;;;;;;63.13;29.67;;;;;;;6.27;79.83;100607.48;124102;1102;104176;-80
2024/03/06 06:21:55;;;;;;;56.67;30.07;;;;;;;6.37;79.24;100608.88;124185;1102;104275;-80
2024/03/06 06:24:26;;;;;;;58.10;29.10;;;;;;;6.44;79.04;100606.69;124154;1102;104326;-80
2024/03/06 06:26:57;;;;;;;56.60;28.20;;;;;;;6.51;79.11;100612.23;124290;1102;104309;-80
2024/03/06 06:29:29;;;;;;;54.40;25.57;;;;;;;6.60;78.89;100607.51;124211;1102;104203;-79
2024/03/06 06:32:02;;;;;;;51.80;26.33;;;;;;;6.73;79.36;100616.87;124595;1102;102810;-79
2024/03/06 06:34:34;;;;;;;53.63;26.00;;;;;;;6.82;78.15;100615.67;124836;1101;104188;-79
2024/03/06 06:37:05;;;;;;;57.83;27.53;;;;;;;6.95;77.94;100616.28;124555;1102;104248;-78
2024/03/06 06:39:36;;;;;;;57.90;26.80;;;;;;;7.00;76.55;100622.66;124517;1102;104252;-78
2024/03/06 06:42:08;;;;;;;56.70;25.37;;;;;;;7.05;75.89;100622.89;124766;1101;104293;-78
2024/03/06 06:44:41;;;;;;;54.20;24.83;;;;;;;7.13;75.85;100624.17;124552;1102;104136;-78
2024/03/06 06:47:13;;;;;;;48.93;22.53;;;;;;;7.20;75.59;100624.57;124712;1102;118232;-79
2024/03/06 06:49:44;;;;;;;46.30;21.97;;;;;;;7.28;75.23;100626.69;124322;1102;104428;-79
2024/03/06 06:52:16;;;;;;;37.30;20.33;;;;;;;7.34;75.55;100622.67;124638;1102;104720;-80
2024/03/06 06:54:48;;;;;;;37.50;18.63;;;;;;;7.37;73.95;100629.77;124733;1102;104355;-79
2024/03/06 06:57:20;;;;;;;33.13;17.67;;;;;;;7.45;74.69;100624.90;124752;1102;103922;-79
2024/03/06 06:59:52;;;;;;;38.23;17.50;;;;;;;7.54;75.01;100621.06;124611;1102;104309;-78
2024/03/06 07:02:27;;;;;;;33.37;16.87;;;;;;;7.60;74.21;100625.67;124618;1102;104300;-79
2024/03/06 07:05:01;;;;;;;35.83;16.40;;;;;;;7.67;73.45;100625.16;124412;1101;104207;-79
2024/03/06 07:07:33;;;;;;;31.80;16.77;;;;;;;7.76;73.01;100619.52;124285;1102;104341;-77
2024/03/06 07:10:04;;;;;;;33.87;16.47;;;;;;;7.79;73.70;100622.27;124669;1102;104642;-77
2024/03/06 07:12:36;;;;;;;30.07;15.60;;;;;;;7.78;73.76;100619.58;124328;1102;104318;-79
2024/03/06 07:15:09;;;;;;;37.47;15.50;;;;;;;7.85;73.59;100627.80;124517;1102;104353;-80
2024/03/06 07:17:43;;;;;;;35.70;15.23;;;;;;;7.95;73.35;100620.37;124436;1102;104225;-79
2024/03/06 07:20:15;;;;;;;32.17;14.37;;;;;;;8.04;71.65;100626.05;124633;1099;104239;-78
2024/03/06 07:22:46;;;;;;;28.00;12.93;;;;;;;8.12;72.31;100627.33;124500;1099;103209;-78
2024/03/06 07:25:18;;;;;;;27.87;13.40;;;;;;;8.25;71.32;100623.56;125055;1099;104291;-78
2024/03/06 07:27:49;;;;;;;29.37;13.37;;;;;;;8.35;71.10;100624.88;124678;1099;102890;-78
2024/03/06 07:30:21;;;;;;;32.20;12.63;;;;;;;8.38;71.13;100610.25;124891;1099;103863;-78
2024/03/06 07:32:53;;;;;;;28.00;11.00;;;;;;;8.48;71.46;100626.37;124730;1099;104251;-78
2024/03/06 07:35:24;;;;;;;28.60;12.00;;;;;;;8.48;69.80;100627.28;124741;1102;104286;-77
2024/03/06 07:37:55;;;;;;;28.23;11.17;;;;;;;8.55;68.57;100624.11;125088;1098;104277;-77
2024/03/06 07:40:26;;;;;;;27.53;10.77;;;;;;;8.55;63.14;100639.80;125019;1099;102143;-78
2024/03/06 07:42:59;;;;;;;24.33;11.03;;;;;;;8.56;67.74;100633.75;125142;1099;102984;-79
2024/03/06 07:45:31;;;;;;;30.70;12.30;;;;;;;8.57;67.21;100632.02;125050;1099;104150;-79
2024/03/06 07:48:02;;;;;;;23.30;11.17;;;;;;;8.63;66.87;100632.30;124628;1099;102968;-79
2024/03/06 07:50:33;;;;;;;27.63;12.03;;;;;;;8.62;63.85;100626.19;124661;1102;104304;-79
2024/03/06 07:53:07;;;;;;;26.10;11.73;;;;;;;8.70;65.91;100634.39;124623;1100;103533;-79
2024/03/06 07:55:38;;;;;;;28.20;12.07;;;;;;;8.86;66.42;100637.70;124800;1099;102878;-78
2024/03/06 07:58:10;;;;;;;27.30;11.60;;;;;;;9.01;66.02;100630.53;125224;1099;104206;-78
2024/03/06 08:00:41;;;;;;;32.27;12.10;;;;;;;9.17;66.73;100629.47;125237;1098;102892;-79
2024/03/06 08:03:13;;;;;;;29.80;11.90;;;;;;;9.30;64.34;100630.88;125081;1098;103049;-80
2024/03/06 08:05:44;;;;;;;23.80;11.10;;;;;;;9.27;60.27;100630.75;125222;1099;104373;-79
2024/03/06 08:08:14;;;;;;;33.90;12.03;;;;;;;9.18;61.48;100631.27;125267;1099;104278;-80
2024/03/06 08:10:45;;;;;;;27.43;11.73;;;;;;;9.23;62.79;100627.11;125281;1099;104156;-79
2024/03/06 08:13:18;;;;;;;28.00;11.70;;;;;;;9.32;63.70;100631.86;125170;1099;104297;-79
2024/03/06 08:15:50;;;;;;;27.48;11.60;;;;;;;9.44;63.99;100635.01;124591;1099;104178;-81
2024/03/06 08:18:21;;;;;;;25.63;11.40;;;;;;;9.59;63.21;100628.61;124955;1099;104175;-79
2024/03/06 08:20:52;;;;;;;25.10;11.10;;;;;;;9.64;63.41;100638.44;124629;1099;104201;-79
2024/03/06 08:23:23;;;;;;;28.17;11.53;;;;;;;9.69;63.08;100630.77;124877;1099;104262;-79
2024/03/06 08:25:54;;;;;;;27.23;11.87;;;;;;;9.81;63.19;100640.87;124894;1099;104293;-79
2024/03/06 08:28:24;;;;;;;27.03;11.27;;;;;;;9.75;59.71;100638.88;124915;1099;104150;-80
2024/03/06 08:30:55;;;;;;;26.33;10.40;;;;;;;9.78;56.52;100635.50;124689;1099;104175;-80
2024/03/06 08:33:25;;;;;;;27.73;11.83;;;;;;;9.82;60.35;100640.05;125022;1099;104173;-79
2024/03/06 08:35:58;;;;;;;30.30;11.20;;;;;;;9.82;57.72;100640.05;125200;1099;104706;-79
2024/03/06 08:38:29;;;;;;;32.53;12.70;;;;;;;9.69;55.80;100639.55;124687;1100;104229;-79
2024/03/06 08:40:59;;;;;;;25.77;11.70;;;;;;;9.65;57.87;100642.86;124487;1099;104270;-80
2024/03/06 08:43:30;;;;;;;26.43;12.00;;;;;;;9.80;59.03;100644.31;124725;1098;103234;-78
2024/03/06 08:46:01;;;;;;;33.37;12.70;;;;;;;9.91;59.25;100640.42;124635;1099;104162;-78
2024/03/06 08:48:31;;;;;;;30.87;12.00;;;;;;;10.01;59.05;100637.32;124883;1099;104166;-78
2024/03/06 08:51:03;;;;;;;28.43;11.07;;;;;;;10.10;58.35;100641.14;125193;1099;104200;-80
2024/03/06 08:53:33;;;;;;;25.57;11.77;;;;;;;10.17;58.81;100640.56;125091;1099;103272;-79
2024/03/06 08:56:06;;;;;;;28.10;11.50;;;;;;;10.33;59.08;100649.95;124979;1099;104050;-80
2024/03/06 08:58:36;;;;;;;31.70;12.37;;;;;;;10.34;57.62;100641.26;124607;1099;104169;-80
2024/03/06 09:01:10;;;;;;;30.57;12.77;;;;;;;10.33;54.86;100640.37;124382;1099;104216;-79
2024/03/06 09:03:45;;;;;;;31.27;12.88;;;;;;;10.28;55.14;100634.00;125132;1099;104229;-79
2024/03/06 09:06:16;;;;;;;27.23;12.17;;;;;;;10.26;55.67;100638.30;124759;1099;104143;-79
2024/03/06 09:08:47;;;;;;;29.20;12.63;;;;;;;10.31;55.57;100641.10;124883;1099;104389;-78
2024/03/06 09:11:17;;;;;;;29.63;12.63;;;;;;;10.35;54.99;100638.69;125146;1098;104242;-79
2024/03/06 09:13:51;;;;;;;26.20;12.23;;;;;;;10.40;55.44;100631.00;124606;1099;104306;-78
2024/03/06 09:16:22;;;;;;;32.67;13.23;;;;;;;10.43;56.20;100631.13;124960;1099;104201;-79
2024/03/06 09:18:52;;;;;;;25.07;12.27;;;;;;;10.55;55.89;100635.92;124954;1099;104277;-79
2024/03/06 09:21:23;;;;;;;31.90;13.87;;;;;;;10.59;56.49;100632.59;124990;1099;104192;-80
2024/03/06 09:23:55;;;;;;;33.10;13.30;;;;;;;10.74;57.06;100632.28;124642;1102;104271;-80
2024/03/06 09:26:30;;;;;;;28.90;13.10;;;;;;;10.71;54.79;100640.04;124675;1099;104211;-80
2024/03/06 09:29:03;;;;;;;29.57;12.97;;;;;;;10.67;55.04;100631.13;124983;1099;104296;-79
2024/03/06 09:31:34;;;;;;;29.67;12.77;;;;;;;10.66;54.60;100634.62;124875;1099;104200;-79
2024/03/06 09:34:04;;;;;;;29.53;11.80;;;;;;;10.60;51.22;100643.14;124799;1098;102280;-78
2024/03/06 09:36:34;;;;;;;28.13;12.37;;;;;;;10.56;52.45;100635.98;125287;1099;104232;-79
2024/03/06 09:39:05;;;;;;;29.40;13.23;;;;;;;10.60;54.46;100634.39;125066;1099;104166;-80
2024/03/06 09:41:36;;;;;;;34.53;13.47;;;;;;;10.67;54.53;100636.38;124802;1102;104258;-78
2024/03/06 09:44:07;;;;;;;23.10;11.20;;;;;;;10.71;51.39;100637.41;124793;1099;104223;-79
2024/03/06 09:46:37;;;;;;;27.23;12.30;;;;;;;10.74;53.58;100633.16;124880;1099;102826;-79
2024/03/06 09:49:10;;;;;;;27.33;11.63;;;;;;;10.81;52.71;100628.14;124975;1098;104262;-79
2024/03/06 09:51:45;;;;;;;27.73;12.77;;;;;;;10.83;53.22;100626.45;125078;1099;104201;-78
2024/03/06 09:54:15;;;;;;;28.70;12.37;;;;;;;10.90;53.91;100621.48;125299;1099;102764;-79
2024/03/06 09:56:47;;;;;;;33.40;12.67;;;;;;;10.95;52.63;100621.66;125205;1099;104467;-79
2024/03/06 09:59:17;;;;;;;30.03;13.33;;;;;;;10.98;53.17;100627.02;125173;1099;104649;-80
2024/03/06 10:01:55;;;;;;;27.87;13.67;;;;;;;11.08;53.41;100628.23;125029;1099;104242;-81
2024/03/06 10:04:37;;;;;;;26.73;11.10;;;;;;;11.17;49.99;100632.92;125170;1099;102449;-78
2024/03/06 10:07:10;;;;;;;28.23;13.07;;;;;;;11.14;51.85;100620.57;125096;1099;104348;-80
2024/03/06 10:09:44;;;;;;;27.90;11.75;;;;;;;11.35;51.86;100623.06;124748;1099;103186;-79
2024/03/06 10:12:22;;;;;;;25.65;11.65;;;;;;;11.42;51.06;100618.91;126526;1098;102480;-79
2024/03/06 10:14:54;;;;;;;26.47;12.37;;;;;;;11.50;51.00;100623.59;125796;1098;102351;-79
2024/03/06 10:17:26;;;;;;;24.37;10.90;;;;;;;11.55;49.79;100623.75;125832;1098;102691;-78
2024/03/06 10:20:01;;;;;;;27.73;12.33;;;;;;;11.50;50.54;100628.84;125991;1098;102588;-79
2024/03/06 10:22:31;;;;;;;22.53;10.60;;;;;;;11.47;49.86;100622.61;125874;1098;102769;-80
2024/03/06 10:25:02;;;;;;;24.90;10.93;;;;;;;11.56;49.08;100638.69;125206;1099;102731;-79
2024/03/06 10:27:32;;;;;;;25.60;9.67;;;;;;;11.46;49.22;100624.31;125744;1099;102532;-79
2024/03/06 10:30:11;;;;;;;33.40;10.67;;;;;;;11.32;47.68;100623.84;125328;1099;103042;-79
2024/03/06 10:32:45;;;;;;;27.33;10.57;;;;;;;11.18;46.49;100629.47;125958;1099;102732;-78
2024/03/06 10:35:22;;;;;;;27.23;9.90;;;;;;;11.17;47.00;100627.67;125909;1099;102872;-79
2024/03/06 10:37:55;;;;;;;24.60;10.63;;;;;;;11.15;47.85;100625.88;127051;1099;101796;-80
2024/03/06 10:40:26;;;;;;;25.50;9.83;;;;;;;11.15;46.60;100636.38;126295;1099;102020;-79
2024/03/06 10:42:56;;;;;;;23.03;10.53;;;;;;;11.19;48.40;100632.16;126234;1099;102693;-80
2024/03/06 10:45:36;;;;;;;22.33;8.77;;;;;;;11.21;44.42;100632.20;125044;1099;104325;-79
2024/03/06 10:48:09;;;;;;;27.23;9.63;;;;;;;11.15;47.51;100628.50;125215;1097;104177;-80
2024/03/06 10:50:43;;;;;;;22.10;9.60;;;;;;;11.12;47.15;100619.63;126671;1099;103089;-79
2024/03/06 10:53:14;;;;;;;22.47;9.70;;;;;;;11.27;47.77;100619.29;126329;1099;101834;-81
2024/03/06 10:55:46;;;;;;;20.77;9.57;;;;;;;11.45;46.82;100619.92;126146;1099;104188;-80
2024/03/06 10:58:16;;;;;;;21.63;9.47;;;;;;;11.57;45.47;100624.69;125076;1099;104727;-79
2024/03/06 11:00:48;;;;;;;25.70;9.40;;;;;;;11.62;45.37;100625.72;124877;1098;104166;-80
2024/03/06 11:03:19;;;;;;;22.47;9.70;;;;;;;11.67;46.52;100617.98;124898;1099;103186;-80
2024/03/06 11:05:51;;;;;;;20.20;9.27;;;;;;;11.74;46.89;100614.73;125536;1099;102101;-78
2024/03/06 11:08:22;;;;;;;21.93;9.37;;;;;;;11.66;45.35;100621.48;124972;1099;102501;-79
2024/03/06 11:10:54;;;;;;;22.33;9.60;;;;;;;11.58;44.94;100620.34;125476;1099;104163;-80
2024/03/06 11:13:34;;;;;;;21.77;9.77;;;;;;;11.57;45.59;100626.43;125405;1099;104165;-80
2024/03/06 11:16:05;;;;;;;22.13;9.40;;;;;;;11.60;44.83;100619.53;125455;1099;104241;-79
2024/03/06 11:18:46;;;;;;;21.97;9.27;;;;;;;11.56;45.81;100628.17;125237;1099;104255;-79
2024/03/06 11:21:49;;;;;;;22.67;9.47;;;;;;;11.58;45.95;100625.59;125280;1099;104265;-79